Terminal Aerodrome Forecast
Issued by NWS Upton, NY

Home | Current Version | Previous Version | Text Only | Print | Product List | Glossary On
Versions: 1 2 3 4 5 6 7 8 9 10 11 12 13 14 15 16 17 18 19 20 21 22 23 24 25 26 27
000
FTUS41 KOKX 222100 AAC
TAFEWR
TAF AMD
KEWR 222116Z 2221/2324 24010KT P6SM FEW060 FEW250
     FM230200 22007KT P6SM FEW050
     FM231600 22010KT P6SM FEW040
     FM231800 22012KT P6SM SCT040 BKN250 PROB30 2318/2324 P6SM TSRA
      BKN040CB=

USA.gov is the U.S. government's official web portal to all federal, state and local government web resources and services.